• Join FlightAware (Why Join?)
  • Login
  • US Flag 
07:42PM EDT


 

Airport Tracker/Info


-or-


 

Live Flight TrackerFlight Track Log ✈ EJM76 ✈ 09-May-2014 ✈ KCNO - KCAK

Flight Track Log - Related Links

Times and Time Zones

All times are in EDT time to prevent confusion due to time zone crossing. See the EJM76 flight status page for this flight to view local times or setup timezone preferences in your user account.

Time Position Orientation Groundspeed Altitude Reporting Facility
EDT Latitude Longitude Course Direction KTS MPH feet Rate Location/Type
02:34PM 33.9667 -117.6667 157° South 185 213 1,400  Level Southern California TRACON
02:35PM 33.9333 -117.6500 157° South 244 281 4,300 2,460 Climbing Southern California TRACON
02:36PM 33.9067 -117.5111 103° East 286 329 7,800 2,340 Climbing Los Angeles Center
02:37PM 33.8292 -117.4536 148° Southeast 322 371 10,500 2,700 Climbing Los Angeles Center
02:38PM 33.7383 -117.3714 143° Southeast 342 394 13,500 2,640 Climbing Los Angeles Center
02:39PM 33.7217 -117.2564 100° East 360 414 16,100 2,400 Climbing Los Angeles Center
02:40PM 33.7122 -117.1397 96° East 355 409 18,600 1,920 Climbing Los Angeles Center
02:41PM 33.7017 -117.0192 96° East 361 415 20,100 1,440 Climbing Los Angeles Center
02:42PM 33.6914 -116.8897 95° East 387 445 21,600 1,500 Climbing Los Angeles Center
02:43PM 33.6992 -116.7517 86° East 409 471 23,200 1,500 Climbing Los Angeles Center
02:44PM 33.7306 -116.6214 74° East 408 470 24,800 1,500 Climbing Los Angeles Center
02:46PM 33.7717 -116.4594 73° East 417 480 26,400 1,200 Climbing Los Angeles Center
02:47PM 33.8075 -116.3192 73° East 432 497 27,400 960 Climbing Los Angeles Center
02:48PM 33.8439 -116.1761 73° East 441 507 28,500 960 Climbing Los Angeles Center
02:49PM 33.8800 -116.0267 74° East 455 524 29,500 1,080 Climbing Los Angeles Center
02:50PM 33.9172 -115.8783 73° East 459 528 30,800 1,140 Climbing Los Angeles Center
02:51PM 33.9531 -115.7328 73° East 459 528 31,900 1,140 Climbing Los Angeles Center
02:52PM 33.9956 -115.5569 74° East 458 527 33,200 1,080 Climbing Los Angeles Center
02:53PM 34.0294 -115.4086 75° East 458 527 34,200 900 Climbing Los Angeles Center
02:54PM 34.0644 -115.2647 74° East 452 520 35,100 780 Climbing Los Angeles Center
02:55PM 34.0994 -115.1206 74° East 452 520 35,900 720 Climbing Los Angeles Center
02:56PM 34.1339 -114.9794 74° East 445 512 36,700 660 Climbing Los Angeles Center
02:57PM 34.1689 -114.8369 73° East 444 511 37,300 600 Climbing Los Angeles Center
02:58PM 34.2094 -114.6653 74° East 444 511 38,000 540 Climbing Los Angeles Center
02:59PM 34.2444 -114.5197 74° East 448 516 38,500 420 Climbing Los Angeles Center
03:00PM 34.2792 -114.3769 74° East 446 513 38,900 240 Climbing Los Angeles Center
03:01PM 34.3153 -114.2328 73° East 446 513 39,000  Climbing Los Angeles Center
03:02PM 34.3464 -114.0819 76° East 455 524 39,000  Level Albuquerque Center
03:03PM 34.3808 -113.9303 75° East 463 533 39,000  Level Albuquerque Center
03:04PM 34.4150 -113.7822 74° East 462 532 39,000  Level Albuquerque Center
03:05PM 34.4514 -113.6267 74° East 462 532 39,000  Level Albuquerque Center
03:06PM 34.4847 -113.4742 75° East 466 536 39,000  Level Albuquerque Center
03:07PM 34.5181 -113.3231 75° East 468 539 39,000  Level Albuquerque Center
03:08PM 34.5517 -113.1706 75° East 468 539 39,000  Level Albuquerque Center
03:09PM 34.5911 -112.9886 75° East 469 540 39,000  Level Albuquerque Center
03:10PM 34.6256 -112.8375 74° East 469 540 39,000  Level Albuquerque Center
03:11PM 34.6581 -112.6858 75° East 470 541 39,000  Level Albuquerque Center
03:12PM 34.6911 -112.5344 75° East 470 541 39,000  Level Albuquerque Center
03:13PM 34.7231 -112.3808 76° East 470 541 39,000  Level Albuquerque Center
03:14PM 34.7597 -112.1967 76° East 470 541 39,000  Level Albuquerque Center
03:15PM 34.7914 -112.0422 76° East 470 541 39,000  Level Albuquerque Center
03:16PM 34.8242 -111.8878 75° East 472 543 39,000  Level Albuquerque Center
03:17PM 34.8781 -111.7453 65° Northeast 469 540 39,000  Level Albuquerque Center
03:18PM 34.9344 -111.5892 66° East 469 540 39,000  Level Albuquerque Center
03:19PM 34.9881 -111.4439 66° East 469 540 39,000  Level Albuquerque Center
03:21PM 35.0253 -111.2883 74° East 479 551 39,000  Level Albuquerque Center
03:22PM 35.0583 -111.0931 78° East 486 559 39,000  Level Albuquerque Center
03:23PM 35.0869 -110.9261 78° East 486 559 39,000  Level Albuquerque Center
03:24PM 35.1114 -110.7706 79° East 486 559 39,000  Level Albuquerque Center
03:25PM 35.1400 -110.5906 79° East 486 559 39,000  Level Albuquerque Center
03:26PM 35.1667 -110.4375 78° East 485 558 39,000  Level Albuquerque Center
03:27PM 35.1953 -110.2578 79° East 484 557 39,000  Level Albuquerque Center
03:28PM 35.2197 -110.1036 79° East 484 557 39,000  Level Albuquerque Center
03:29PM 35.2486 -109.9217 79° East 485 558 39,000  Level Albuquerque Center
03:30PM 35.2722 -109.7644 80° East 487 560 39,000  Level Albuquerque Center
03:31PM 35.2950 -109.6069 80° East 490 564 39,000  Level Albuquerque Center
03:32PM 35.3225 -109.4239 80° East 490 564 39,000  Level Albuquerque Center
03:33PM 35.3458 -109.2689 80° East 490 564 39,000  Level Albuquerque Center
03:34PM 35.3742 -109.0875 79° East 490 564 39,000  Level Albuquerque Center
03:35PM 35.3972 -108.9314 80° East 490 564 39,000  Level Albuquerque Center
03:36PM 35.4239 -108.7489 80° East 489 563 39,000  Level Albuquerque Center
03:37PM 35.4458 -108.5922 80° East 490 564 39,000  Level Albuquerque Center
03:38PM 35.4714 -108.4106 80° East 489 563 39,000  Level Albuquerque Center
03:39PM 35.4942 -108.2544 80° East 489 563 39,000  Level Albuquerque Center
03:40PM 35.5200 -108.0717 80° East 489 563 39,000  Level Albuquerque Center
03:41PM 35.5353 -107.9131 83° East 490 564 39,000  Level Albuquerque Center
03:42PM 35.5444 -107.7253 87° East 491 565 39,000  Level Albuquerque Center
03:43PM 35.5519 -107.5656 87° East 492 566 39,000  Level Albuquerque Center
03:44PM 35.5633 -107.3758 86° East 493 567 39,000  Level Albuquerque Center
03:45PM 35.5728 -107.2144 86° East 495 570 39,000  Level Albuquerque Center
03:46PM 35.5797 -107.0264 87° East 493 567 39,000  Level Albuquerque Center
03:47PM 35.5878 -106.8578 87° East 494 568 39,000  Level Albuquerque Center
03:48PM 35.5967 -106.6769 86° East 493 567 39,000  Level Albuquerque Center
03:49PM 35.6119 -106.5081 84° East 494 568 39,000  Level Albuquerque Center
03:51PM 35.6347 -106.3314 81° East 490 564 39,000  Level Albuquerque Center
03:52PM 35.6547 -106.1881 80° East 485 558 39,000  Level Albuquerque Center
03:53PM 35.6811 -106.0306 78° East 479 551 39,000  Level Albuquerque Center
03:54PM 35.7017 -105.8689 81° East 478 550 39,000  Level Albuquerque Center
03:55PM 35.7261 -105.6756 81° East 478 550 39,000  Level Albuquerque Center
03:56PM 35.7464 -105.5200 81° East 477 549 39,000  Level Albuquerque Center
03:57PM 35.7664 -105.3561 81° East 477 549 39,000  Level Albuquerque Center
03:58PM 35.7878 -105.1919 81° East 479 551 39,000  Level Albuquerque Center
03:59PM 35.8122 -104.9972 81° East 484 557 39,000  Level Albuquerque Center
04:00PM 35.8333 -104.8325 81° East 485 558 39,000  Level Albuquerque Center
04:01PM 35.8539 -104.6636 81° East 487 560 39,000  Level Albuquerque Center
04:02PM 35.8736 -104.4956 82° East 491 565 39,000  Level Albuquerque Center
04:03PM 35.8947 -104.3256 81° East 492 566 39,000  Level Albuquerque Center
04:04PM 35.9158 -104.1553 81° East 492 566 39,000  Level Albuquerque Center
04:05PM 35.9353 -103.9833 82° East 495 570 39,000  Level Albuquerque Center
04:06PM 35.9556 -103.8125 82° East 495 570 39,000  Level Albuquerque Center
04:07PM 35.9744 -103.6419 82° East 495 570 39,000  Level Albuquerque Center
04:08PM 35.9986 -103.4408 81° East 498 573 39,000  Level Albuquerque Center
04:09PM 36.0172 -103.2678 82° East 499 574 39,000  Level Albuquerque Center
04:10PM 36.0353 -103.0942 83° East 502 578 39,000  Level Albuquerque Center
04:11PM 36.0547 -102.9217 82° East 503 579 39,000  Level Albuquerque Center
04:12PM 36.0722 -102.7561 83° East 502 578 39,000  Level Albuquerque Center
04:13PM 36.0906 -102.5861 82° East 502 578 39,000  Level Albuquerque Center
04:14PM 36.1086 -102.4167 82° East 500 575 39,000  Level Albuquerque Center
04:15PM 36.1292 -102.2106 83° East 500 575 39,000  Level Albuquerque Center
04:16PM 36.1472 -102.0408 82° East 500 575 39,000  Level Albuquerque Center
04:17PM 36.1639 -101.8708 83° East 500 575 39,000  Level Albuquerque Center
04:18PM 36.1808 -101.7017 83° East 499 574 39,000  Level Albuquerque Center
04:19PM 36.1975 -101.5325 83° East 497 572 39,000  Level Albuquerque Center
04:20PM 36.2136 -101.3633 83° East 497 572 39,000  Level Albuquerque Center
04:22PM 36.2314 -101.1619 84° East 497 572 39,000  Level Albuquerque Center
04:23PM 36.2483 -100.9942 83° East 496 571 39,000  Level Albuquerque Center
04:24PM 36.2633 -100.8267 84° East 494 568 39,000  Level Albuquerque Center
04:24PM 36.2686 -100.7575 85° East 493 567 39,000  Level Kansas City Center
04:25PM 36.2867 -100.5581 84° East 492 566 39,000  Level Kansas City Center
04:26PM 36.3008 -100.3903 84° East 492 566 39,000  Level Kansas City Center
04:27PM 36.3153 -100.2222 84° East 491 565 39,000  Level Kansas City Center
04:28PM 36.3294 -100.0533 84° East 492 566 39,000  Level Kansas City Center
04:29PM 36.3442 -99.8839 84° East 492 566 39,000  Level Kansas City Center
04:30PM 36.3719 -99.7167 78° East 492 566 39,000  Level Kansas City Center
04:31PM 36.4050 -99.5178 78° East 492 566 39,000  Level Kansas City Center
04:32PM 36.4333 -99.3494 78° East 492 566 39,000  Level Kansas City Center
04:33PM 36.4619 -99.1825 78° East 492 566 39,000  Level Kansas City Center
04:35PM 36.4889 -99.0142 79° East 492 566 39,000  Level Kansas City Center
04:36PM 36.5158 -98.8469 79° East 492 566 39,000  Level Kansas City Center
04:37PM 36.5425 -98.6797 79° East 492 566 39,000  Level Kansas City Center
04:38PM 36.5692 -98.5117 79° East 492 566 39,000  Level Kansas City Center
04:39PM 36.5961 -98.3447 79° East 493 567 39,000  Level Kansas City Center
04:40PM 36.6264 -98.1442 79° East 492 566 39,000  Level Kansas City Center
04:41PM 36.6522 -97.9761 79° East 492 566 39,000  Level Kansas City Center
04:42PM 36.6769 -97.8086 80° East 492 566 39,000  Level Kansas City Center
04:43PM 36.7047 -97.6347 79° East 493 567 39,000  Level Kansas City Center
04:44PM 36.7300 -97.4636 80° East 498 573 39,000  Level Kansas City Center
04:45PM 36.7586 -97.2708 79° East 500 575 39,000  Level Kansas City Center
04:46PM 36.7831 -97.1011 80° East 500 575 39,000  Level Kansas City Center
04:47PM 36.8094 -96.9314 79° East 490 564 39,000  Level Kansas City Center
04:48PM 36.8344 -96.7594 80° East 497 572 39,000  Level Kansas City Center
04:49PM 36.8586 -96.5911 80° East 497 572 39,000  Level Kansas City Center
04:50PM 36.8811 -96.4197 81° East 496 571 39,000  Level Kansas City Center
04:51PM 36.9047 -96.2475 80° East 497 572 39,000  Level Kansas City Center
04:52PM 36.9286 -96.0731 80° East 503 579 39,000  Level Kansas City Center
04:53PM 36.9608 -95.8628 79° East 509 586 39,000  Level Kansas City Center
04:54PM 36.9914 -95.6875 78° East 509 586 39,000  Level Kansas City Center
04:55PM 37.0192 -95.5117 79° East 510 587 39,000  Level Kansas City Center
04:56PM 37.0472 -95.3386 78° East 509 586 39,000  Level Kansas City Center
04:57PM 37.0758 -95.1628 78° East 508 585 39,000  Level Kansas City Center
04:58PM 37.1039 -94.9864 79° East 509 586 39,000  Level Kansas City Center
04:59PM 37.1356 -94.8106 77° East 510 587 39,000  Level Kansas City Center
05:00PM 37.1958 -94.6467 65° Northeast 516 594 39,000  Level Kansas City Center
05:01PM 37.2681 -94.4489 65° Northeast 518 596 39,000  Level Kansas City Center
05:02PM 37.3281 -94.2819 66° East 519 597 39,000  Level Kansas City Center
05:03PM 37.3872 -94.1147 66° East 520 598 39,000  Level Kansas City Center
05:04PM 37.4539 -93.9300 66° East 520 598 39,000  Level Kansas City Center
05:06PM 37.5144 -93.7625 65° Northeast 521 600 39,000  Level Kansas City Center
05:07PM 37.5733 -93.5939 66° East 522 601 39,000  Level Kansas City Center
05:08PM 37.6333 -93.4228 66° East 528 608 39,000  Level Kansas City Center
05:09PM 37.6922 -93.2525 66° East 528 608 39,000  Level Kansas City Center
05:10PM 37.7519 -93.0806 66° East 528 608 39,000  Level Kansas City Center
05:11PM 37.8117 -92.9072 66° East 532 612 39,000  Level Kansas City Center
05:12PM 37.8725 -92.7292 67° East 534 615 39,000  Level Kansas City Center
05:13PM 37.9425 -92.5217 67° East 535 616 39,000  Level Kansas City Center
05:14PM 37.9997 -92.3450 68° East 542 624 39,000  Level Kansas City Center
05:15PM 38.0600 -92.1736 66° East 540 621 39,000  Level Kansas City Center
05:16PM 38.1225 -91.9856 67° East 536 617 39,000  Level Kansas City Center
05:17PM 38.1808 -91.8117 67° East 535 616 39,000  Level Kansas City Center
05:18PM 38.2378 -91.6372 67° East 535 616 39,000  Level Kansas City Center
05:19PM 38.2942 -91.4611 68° East 536 617 39,000  Level Kansas City Center
05:20PM 38.3569 -91.2692 67° East 536 617 39,000  Level Kansas City Center
05:21PM 38.4147 -91.0950 67° East 535 616 39,000  Level Kansas City Center
05:22PM 38.4711 -90.9172 68° East 538 619 39,000  Level Kansas City Center
05:23PM 38.5264 -90.7425 68° East 537 618 39,000  Level Kansas City Center
05:24PM 38.5864 -90.5594 67° East 536 617 39,000  Level Kansas City Center
05:25PM 38.6422 -90.3817 68° East 536 617 39,000  Level Kansas City Center
05:26PM 38.7064 -90.1817 68° East 536 617 39,000  Level Kansas City Center
05:27PM 38.7583 -90.0108 69° East 537 618 39,000  Level Kansas City Center
05:28PM 38.8247 -89.7928 69° East 552 635 39,000  Level Kansas City Center
05:29PM 38.8731 -89.6358 68° East 547 629 39,000  Level Kansas City Center
05:30PM 38.9369 -89.4361 68° East 553 636 39,000  Level Kansas City Center
05:31PM 38.9972 -89.2261 70° East 562 647 39,000  Level Kansas City Center
05:32PM 39.0522 -89.0400 69° East 561 646 39,000  Level Kansas City Center
05:33PM 39.1078 -88.8675 67° East 561 646 39,000  Level Kansas City Center
05:34PM 39.1725 -88.6431 70° East 562 647 39,000  Level Kansas City Center
05:36PM 39.2283 -88.4542 69° East 562 647 39,000  Level Kansas City Center
05:37PM 39.2839 -88.2625 69° East 561 646 39,000  Level Kansas City Center
05:38PM 39.3403 -88.0683 69° East 565 650 39,000  Level Kansas City Center
05:39PM 39.3956 -87.8758 70° East 566 651 39,000  Level Kansas City Center
05:40PM 39.4503 -87.6822 70° East 566 651 39,000  Level Kansas City Center
05:41PM 39.5044 -87.4911 70° East 565 650 39,000  Level Kansas City Center
05:42PM 39.5828 -87.2150 70° East 566 651 39,000  Level Indianapolis Center
05:43PM 39.6464 -86.9847 70° East 567 652 39,000  Level Indianapolis Center
05:44PM 39.6989 -86.7928 70° East 567 652 39,000  Level Indianapolis Center
05:45PM 39.7522 -86.6003 70° East 567 652 39,000  Level Indianapolis Center
05:46PM 39.8064 -86.4053 70° East 566 651 39,000  Level Indianapolis Center
05:47PM 39.8642 -86.2031 70° East 567 652 39,000  Level Indianapolis Center
05:48PM 39.9222 -86.0092 69° East 567 652 39,000  Level Indianapolis Center
05:49PM 39.9783 -85.8181 69° East 567 652 39,000 -780 Level Indianapolis Center
05:50PM 40.0336 -85.6325 69° East 555 639 37,500 -1,440 Descending Indianapolis Center
05:51PM 40.0978 -85.4131 69° East 544 626 36,100 -780 Descending Indianapolis Center
05:52PM 40.1517 -85.2317 69° East 539 620 36,000 -360 Descending Indianapolis Center
05:54PM 40.2272 -85.0592 60° Northeast 540 621 35,400 -480 Descending Indianapolis Center
05:55PM 40.2942 -84.8964 62° Northeast 547 629 35,000 -780 Descending Indianapolis Center
05:56PM 40.3817 -84.6825 62° Northeast 549 632 33,800 -1,500 Descending Indianapolis Center
05:57PM 40.4533 -84.5092 61° Northeast 547 629 32,000 -1,380 Descending Indianapolis Center
05:58PM 40.4783 -84.3275 80° East 514 592 31,000 -540 Descending Indianapolis Center
05:59PM 40.4947 -84.1447 83° East 505 581 30,900 -960 Descending Indianapolis Center
06:00PM 40.5108 -83.9622 83° East 504 580 29,100 -1,800 Descending Indianapolis Center
06:01PM 40.5250 -83.7808 84° East 503 579 27,300 -1,800 Descending Indianapolis Center
06:02PM 40.5408 -83.5981 83° East 503 579 25,500 -1,620 Descending Indianapolis Center
06:03PM 40.5586 -83.3903 84° East 481 554 24,000 -780 Descending Indianapolis Center
06:04PM 40.5725 -83.2203 84° East 472 543 24,000 -300 Level Indianapolis Center
06:05PM 40.5867 -83.0444 84° East 461 531 23,500 -540 Descending Indianapolis Center
06:06PM 40.5986 -82.8881 84° East 436 502 23,000 -780 Descending Indianapolis Center
06:07PM 40.6114 -82.7314 84° East 432 497 22,000 -1,500 Descending Indianapolis Center
06:08PM 40.6233 -82.5733 84° East 432 497 19,900 -2,100 Descending Indianapolis Center
06:09PM 40.6350 -82.4164 84° East 429 494 17,700 -2,040 Descending Cleveland Center
06:10PM 40.6453 -82.2697 85° East 406 467 15,800 -1,980 Descending Cleveland Center
06:12PM 40.6669 -81.9761 84° East 356 410 11,600 -1,860 Descending Cleveland Center
06:13PM 40.6756 -81.8578 84° East 328 377 10,100 -1,800 Descending Cleveland Center
06:14PM 40.6853 -81.7442 84° East 316 364 7,900 -2,040 Descending Cleveland Center
06:15PM 40.7617 -81.6839 31° Northeast 321 369 5,900 -1,500 Descending Cleveland Center
06:16PM 40.8408 -81.6417 22° Northeast 313 360 4,800 -1,200 Descending Cleveland Center
06:17PM 40.9192 -81.5786 31° Northeast 286 329 3,500 -1,020 Descending Cleveland Center
06:18PM 40.9686 -81.5194 42° Northeast 254 292 2,800 -660 Descending Cleveland Center
06:20PM 40.9442 -81.4381 112° Southeast 153 176 1,500 -540 Descending Cleveland Center
06:21PM 40.9061 -81.4403 183° South 141 162 1,300 -240 Descending Cleveland Center